Time;durP1;ratioP1;P1;durP2;ratioP2;P2;SDS_P1;SDS_P2;PMS_P1;PMS_P2;Temp;Humidity;BMP_temperature;BMP_pressure;BME280_temperature;BME280_humidity;BME280_pressure;Samples;Min_cycle;Max_cycle;Signal;HPM_P1;HPM_P2
2023/08/25 00:01:12;;;;;;;;;9.50;9.50;;;;;25.55;66.03;100470.25;5111449;27;45394;-67
2023/08/25 00:03:37;;;;;;;;;12.75;10.50;;;;;25.43;65.76;100452.28;5078089;27;45784;-66
2023/08/25 00:06:03;;;;;;;;;12.25;11.75;;;;;25.51;65.76;100466.06;5078045;27;45514;-66
2023/08/25 00:08:28;;;;;;;;;11.75;10.50;;;;;25.49;66.15;100465.31;5077860;27;45465;-65
2023/08/25 00:11:01;;;;;;;;;9.50;9.25;;;;;25.46;66.58;100466.38;5077047;28;45523;-66
2023/08/25 00:13:29;;;;;;;;;10.50;10.00;;;;;25.36;66.14;100455.34;5078464;27;45552;-66
2023/08/25 00:15:54;;;;;;;;;15.50;11.50;;;;;25.36;67.02;100460.72;5077845;27;45338;-66
2023/08/25 00:18:29;;;;;;;;;12.25;10.50;;;;;25.27;67.03;100455.97;5077177;27;45250;-66
2023/08/25 00:20:56;;;;;;;;;11.33;10.67;;;;;25.24;67.72;100458.81;5078949;27;45492;-68
2023/08/25 00:23:21;;;;;;;;;10.33;10.33;;;;;25.21;67.24;100452.81;5079315;28;45528;-67
2023/08/25 00:25:47;;;;;;;;;10.75;10.75;;;;;25.22;67.56;100457.19;5079780;27;45590;-66
2023/08/25 00:28:12;;;;;;;;;10.00;10.00;;;;;25.13;67.63;100434.53;5079010;28;45482;-68
2023/08/25 00:30:38;;;;;;;;;12.00;11.67;;;;;25.09;67.63;100420.44;5077747;27;45502;-66
2023/08/25 00:33:04;;;;;;;;;12.67;10.67;;;;;25.06;67.85;100430.50;5078225;27;45397;-65
2023/08/25 00:35:29;;;;;;;;;11.67;11.67;;;;;24.98;68.11;100423.78;5079006;27;46163;-66
2023/08/25 00:37:55;;;;;;;;;10.75;9.00;;;;;25.12;67.81;100443.50;5080274;27;45441;-69
2023/08/25 00:40:21;;;;;;;;;10.00;10.00;;;;;25.15;67.93;100433.47;5078616;27;45444;-69
2023/08/25 00:42:46;;;;;;;;;13.00;12.33;;;;;25.07;68.69;100429.53;5082884;27;45419;-68
2023/08/25 00:45:12;;;;;;;;;11.75;11.75;;;;;25.00;68.56;100430.88;5080211;27;46417;-67
2023/08/25 00:47:38;;;;;;;;;12.67;10.67;;;;;24.91;68.93;100411.72;5079579;27;45440;-66
2023/08/25 00:50:06;;;;;;;;;13.33;12.33;;;;;24.97;68.97;100431.94;5078570;27;45525;-69
2023/08/25 00:52:32;;;;;;;;;13.00;12.33;;;;;24.92;69.04;100424.19;5078346;27;45369;-69
2023/08/25 00:54:59;;;;;;;;;12.00;11.67;;;;;24.78;68.71;100392.06;5080318;28;45515;-66
2023/08/25 00:57:24;;;;;;;;;14.33;14.33;;;;;24.98;69.07;100428.28;5078914;27;45534;-66
2023/08/25 00:59:51;;;;;;;;;14.25;12.25;;;;;24.91;69.51;100427.81;5077885;27;45424;-64
2023/08/25 01:02:19;;;;;;;;;12.67;12.67;;;;;24.81;69.38;100413.28;5077657;27;45344;-69
2023/08/25 01:04:45;;;;;;;;;14.67;13.67;;;;;24.91;69.17;100419.78;5077237;27;45537;-64
2023/08/25 01:07:10;;;;;;;;;11.67;11.33;;;;;24.90;70.07;100426.09;5079508;27;45459;-73
2023/08/25 01:09:36;;;;;;;;;15.67;15.00;;;;;24.79;69.66;100427.72;5079413;27;45327;-72
2023/08/25 01:12:14;;;;;;;;;16.67;14.00;;;;;24.87;69.99;100425.44;5110582;27;45414;-68
2023/08/25 01:14:52;;;;;;;;;14.33;12.33;;;;;24.86;70.18;100443.31;5076708;27;45472;-66
2023/08/25 01:17:23;;;;;;;;;14.00;12.33;;;;;24.76;70.53;100439.50;5065027;28;45271;-66
2023/08/25 01:19:54;;;;;;;;;15.00;13.33;;;;;24.68;70.35;100433.75;5077353;27;45447;-65
2023/08/25 01:22:43;;;;;;;;;12.67;12.67;;;;;24.55;70.39;100414.91;5079956;27;45296;-66
2023/08/25 01:25:26;;;;;;;;;11.33;11.00;;;;;24.68;70.96;100439.13;5079918;27;46295;-67
2023/08/25 01:28:03;;;;;;;;;10.67;9.67;;;;;24.60;71.20;100428.00;5079157;27;45387;-64
2023/08/25 01:30:32;;;;;;;;;14.67;11.67;;;;;24.60;70.85;100431.53;5096045;27;45390;-65
2023/08/25 01:32:58;;;;;;;;;13.33;11.33;;;;;24.55;70.99;100415.75;5080783;27;45556;-64
2023/08/25 01:35:59;;;;;;;;;14.33;13.00;;;;;24.60;71.40;100423.50;5081293;27;46029;-64
2023/08/25 01:38:33;;;;;;;;;14.67;11.67;;;;;24.59;71.38;100426.28;5078877;27;45846;-64
2023/08/25 01:41:07;;;;;;;;;13.33;12.33;;;;;24.59;71.43;100415.59;5079921;27;45435;-64
2023/08/25 01:43:37;;;;;;;;;13.33;13.33;;;;;24.51;71.74;100421.38;5080004;27;45408;-64
2023/08/25 01:46:02;;;;;;;;;12.00;12.00;;;;;24.58;71.00;100420.06;5079974;27;45452;-65
2023/08/25 01:48:30;;;;;;;;;15.67;12.00;;;;;24.55;71.09;100415.75;5080274;27;45447;-66
2023/08/25 01:50:56;;;;;;;;;18.00;13.33;;;;;24.56;71.27;100411.28;5078875;27;45923;-65
2023/08/25 01:53:22;;;;;;;;;14.67;14.67;;;;;24.39;71.86;100398.00;5081852;27;45393;-65
2023/08/25 01:55:48;;;;;;;;;15.00;13.00;;;;;24.48;72.00;100416.22;5096571;27;46360;-66
2023/08/25 01:58:14;;;;;;;;;11.67;11.00;;;;;24.51;71.38;100416.03;5080572;27;45360;-67
2023/08/25 02:00:40;;;;;;;;;13.67;13.67;;;;;24.50;72.03;100412.50;5081075;27;45438;-64
2023/08/25 02:03:06;;;;;;;;;16.00;13.00;;;;;24.49;71.78;100402.75;5080396;27;45372;-64
2023/08/25 02:05:31;;;;;;;;;14.33;12.67;;;;;24.51;71.65;100399.97;5079212;27;45458;-65
2023/08/25 02:07:57;;;;;;;;;11.00;11.00;;;;;24.52;71.82;100402.56;5080913;27;45420;-65
2023/08/25 02:10:23;;;;;;;;;13.67;11.33;;;;;24.41;72.04;100388.06;5080681;27;45418;-65
2023/08/25 02:12:48;;;;;;;;;14.00;11.67;;;;;24.47;71.60;100396.63;5096620;27;45519;-65
2023/08/25 02:15:14;;;;;;;;;12.67;11.33;;;;;24.51;71.75;100391.94;5079622;27;45285;-65
2023/08/25 02:17:40;;;;;;;;;16.67;12.67;;;;;24.52;71.55;100394.53;5079561;27;45460;-64
2023/08/25 02:20:07;;;;;;;;;11.67;11.33;;;;;24.32;71.04;100352.91;5079225;27;45476;-65
2023/08/25 02:22:33;;;;;;;;;15.00;11.33;;;;;24.53;71.84;100377.50;5079819;27;45423;-64
2023/08/25 02:24:58;;;;;;;;;11.00;11.00;;;;;24.51;71.17;100368.72;5078723;27;46093;-65
2023/08/25 02:27:24;;;;;;;;;14.00;11.00;;;;;24.56;71.22;100373.78;5094891;27;45546;-67
2023/08/25 02:29:49;;;;;;;;;14.25;12.00;;;;;24.64;71.38;100359.94;5079487;27;45473;-66
2023/08/25 02:32:15;;;;;;;;;12.25;12.25;;;;;24.66;71.04;100352.66;5079918;27;45492;-65
2023/08/25 02:34:40;;;;;;;;;11.33;9.33;;;;;24.64;71.21;100339.34;5078504;27;46048;-64
2023/08/25 02:37:06;;;;;;;;;9.33;9.33;;;;;24.61;70.61;100325.31;5094327;27;45434;-64
2023/08/25 02:39:31;;;;;;;;;10.50;9.00;;;;;24.78;70.41;100319.75;5079649;27;45412;-66
2023/08/25 02:41:57;;;;;;;;;11.33;11.33;;;;;24.73;70.82;100320.03;5078959;27;45475;-65
2023/08/25 02:44:22;;;;;;;;;9.33;9.33;;;;;24.72;70.75;100322.78;5078941;27;45447;-67
2023/08/25 02:46:48;;;;;;;;;14.33;12.00;;;;;24.65;71.25;100306.25;5079013;27;45353;-65
2023/08/25 02:49:14;;;;;;;;;12.00;11.33;;;;;24.69;71.10;100317.66;5078581;27;45463;-67
2023/08/25 02:51:39;;;;;;;;;11.67;10.00;;;;;24.65;71.20;100316.09;5079162;27;45942;-69
2023/08/25 02:54:05;;;;;;;;;13.00;10.67;;;;;24.67;71.06;100309.69;5079004;27;45537;-66
2023/08/25 02:56:30;;;;;;;;;10.67;10.67;;;;;24.59;70.02;100295.09;5078760;27;45331;-67
2023/08/25 02:58:56;;;;;;;;;15.33;11.67;;;;;24.85;69.86;100321.06;5080094;27;45218;-65
2023/08/25 03:01:21;;;;;;;;;14.33;10.33;;;;;24.86;70.10;100332.63;5079711;27;45462;-66
2023/08/25 03:03:47;;;;;;;;;14.33;12.33;;;;;24.86;70.03;100329.97;5079978;28;46130;-66
2023/08/25 03:06:13;;;;;;;;;16.00;12.00;;;;;24.91;70.05;100344.75;5078435;27;45415;-65
2023/08/25 03:08:46;;;;;;;;;11.33;10.33;;;;;24.76;70.51;100337.72;5078668;27;45586;-65
2023/08/25 03:11:12;;;;;;;;;12.25;10.75;;;;;24.89;70.25;100362.78;5094044;27;45612;-65
2023/08/25 03:13:38;;;;;;;;;19.00;18.00;;;;;24.79;70.86;100374.16;5078150;27;46370;-66
2023/08/25 03:16:03;;;;;;;;;21.67;16.67;;;;;24.79;71.12;100385.72;5076026;27;45519;-64
2023/08/25 03:18:29;;;;;;;;;16.33;16.33;;;;;24.73;70.87;100359.34;5069816;28;45506;-65
2023/08/25 03:20:55;;;;;;;;;22.00;16.67;;;;;24.90;70.27;100374.34;5072958;27;45463;-65
2023/08/25 03:23:21;;;;;;;;;15.00;14.67;;;;;24.99;70.33;100389.84;5065927;28;47667;-65
2023/08/25 03:25:46;;;;;;;;;15.67;15.67;;;;;25.06;70.21;100404.56;5090752;27;45421;-64
2023/08/25 03:28:12;;;;;;;;;18.00;16.33;;;;;25.08;70.24;100416.06;5066659;27;45487;-67
2023/08/25 03:30:38;;;;;;;;;19.00;18.00;;;;;25.06;70.33;100427.81;5071097;27;45439;-66
2023/08/25 03:33:04;;;;;;;;;22.67;18.00;;;;;25.06;70.46;100443.91;5070006;27;46189;-65
2023/08/25 03:35:37;;;;;;;;;22.67;20.00;;;;;24.88;70.56;100440.53;5069068;28;45276;-66
2023/08/25 03:38:03;;;;;;;;;23.67;18.67;;;;;24.83;70.62;100456.03;5072789;27;45353;-66
2023/08/25 03:40:28;;;;;;;;;20.33;19.00;;;;;24.71;71.01;100461.19;5082084;27;45840;-68
2023/08/25 03:42:58;;;;;;;;;19.33;18.00;;;;;24.60;70.96;100418.16;5088027;27;47779;-65
2023/08/25 03:45:23;;;;;;;;;22.00;18.67;;;;;24.57;71.25;100415.66;5073335;27;45535;-66
2023/08/25 03:47:49;;;;;;;;;16.67;15.33;;;;;24.30;71.47;100373.53;5079952;27;45337;-65
2023/08/25 03:50:15;;;;;;;;;16.33;16.33;;;;;24.44;71.52;100404.81;5079163;27;45309;-68
2023/08/25 03:52:40;;;;;;;;;17.67;16.67;;;;;24.36;71.40;100368.78;5078263;27;45551;-66
2023/08/25 03:55:06;;;;;;;;;19.33;18.00;;;;;24.63;70.60;100407.25;5078942;27;45603;-68
2023/08/25 03:57:33;;;;;;;;;17.33;15.67;;;;;24.73;70.67;100400.38;5079286;27;45493;-69
2023/08/25 03:59:58;;;;;;;;;19.00;19.00;;;;;24.87;70.80;100409.38;5078570;27;45780;-68
2023/08/25 04:02:24;;;;;;;;;18.33;16.67;;;;;24.73;70.09;100375.41;5077485;27;45416;-68
2023/08/25 04:04:50;;;;;;;;;13.67;13.67;;;;;24.92;69.91;100391.19;5077527;27;45338;-67
2023/08/25 04:07:15;;;;;;;;;15.33;14.67;;;;;24.87;69.97;100372.72;5077295;27;45435;-67
2023/08/25 04:09:41;;;;;;;;;12.67;12.67;;;;;24.80;70.01;100365.19;5077556;27;45277;-67
2023/08/25 04:12:08;;;;;;;;;14.25;13.25;;;;;24.76;70.36;100361.81;5077167;27;46236;-63
2023/08/25 04:14:36;;;;;;;;;11.67;11.33;;;;;24.83;70.12;100357.81;5075378;27;45485;-66
2023/08/25 04:17:04;;;;;;;;;11.67;11.67;;;;;24.89;69.87;100351.19;5093829;27;45399;-63
2023/08/25 04:19:31;;;;;;;;;15.67;12.67;;;;;25.00;69.36;100356.72;5077210;27;45482;-63
2023/08/25 04:21:56;;;;;;;;;11.33;11.33;;;;;25.08;69.15;100349.06;5077137;27;45623;-64
2023/08/25 04:24:22;;;;;;;;;15.67;12.67;;;;;25.15;68.83;100342.34;5063357;28;45459;-64
2023/08/25 04:26:47;;;;;;;;;16.33;10.67;;;;;25.20;68.54;100346.56;5067526;27;45458;-63
2023/08/25 04:29:13;;;;;;;;;13.50;10.00;;;;;25.24;67.96;100340.03;5063584;27;45447;-64
2023/08/25 04:31:38;;;;;;;;;12.00;12.00;;;;;25.30;67.67;100342.34;5067926;27;45511;-65
2023/08/25 04:34:07;;;;;;;;;11.00;11.00;;;;;25.33;67.80;100337.63;5061498;28;45365;-64
2023/08/25 04:36:36;;;;;;;;;11.00;10.25;;;;;25.36;67.69;100336.56;5061528;27;45528;-62
2023/08/25 04:39:03;;;;;;;;;10.75;10.75;;;;;25.38;67.42;100332.81;5065943;28;45607;-66
2023/08/25 04:41:41;;;;;;;;;11.00;10.25;;;;;25.24;67.94;100314.09;5076738;27;45444;-62
2023/08/25 04:44:06;;;;;;;;;10.00;9.50;;;;;25.23;67.93;100328.47;5075306;27;45436;-66
2023/08/25 04:46:32;;;;;;;;;11.00;11.00;;;;;25.17;68.31;100319.00;5077031;27;45544;-68
2023/08/25 04:48:58;;;;;;;;;12.00;10.75;;;;;25.23;67.73;100315.06;5078003;27;45941;-67
2023/08/25 04:51:23;;;;;;;;;12.25;12.25;;;;;25.28;67.48;100326.34;5064442;27;46067;-68
2023/08/25 04:53:49;;;;;;;;;14.33;13.33;;;;;25.17;68.05;100313.63;5073337;27;45410;-70
2023/08/25 04:56:15;;;;;;;;;12.67;12.67;;;;;25.24;68.03;100318.59;5071343;27;45404;-72
2023/08/25 04:58:41;;;;;;;;;13.67;13.33;;;;;25.22;68.24;100324.06;5079578;27;45420;-66
2023/08/25 05:01:20;;;;;;;;;19.00;17.00;;;;;25.22;68.16;100329.41;5070976;27;45572;-64
2023/08/25 05:03:48;;;;;;;;;17.33;16.67;;;;;25.26;68.14;100327.41;5065961;27;45611;-72
2023/08/25 05:06:14;;;;;;;;;19.00;17.33;;;;;25.30;68.07;100332.47;5067816;27;45468;-68
2023/08/25 05:08:39;;;;;;;;;18.00;18.00;;;;;25.26;67.42;100314.84;5070349;27;45512;-64
2023/08/25 05:11:05;;;;;;;;;25.33;24.00;;;;;25.39;67.78;100331.84;5068893;27;46001;-63
2023/08/25 05:13:31;;;;;;;;;23.67;20.00;;;;;25.38;67.47;100319.41;5069783;27;45515;-68
2023/08/25 05:15:56;;;;;;;;;25.33;23.33;;;;;25.42;67.43;100320.06;5075865;27;45517;-65
2023/08/25 05:18:24;;;;;;;;;27.33;25.33;;;;;25.41;68.13;100333.56;5063227;27;45486;-65
2023/08/25 05:20:50;;;;;;;;;26.00;22.33;;;;;25.33;67.51;100316.16;5071545;27;45759;-63
2023/08/25 05:23:16;;;;;;;;;27.33;24.67;;;;;25.36;67.37;100312.44;5074275;27;45388;-63
2023/08/25 05:25:41;;;;;;;;;26.00;25.00;;;;;25.43;67.21;100337.88;5076488;27;45537;-67
2023/08/25 05:28:07;;;;;;;;;31.67;24.67;;;;;25.52;67.51;100345.28;5076825;27;45381;-62
2023/08/25 05:30:34;;;;;;;;;25.67;24.33;;;;;25.54;67.13;100347.88;5079504;27;46307;-63
2023/08/25 05:32:59;;;;;;;;;27.33;24.33;;;;;25.57;67.09;100355.72;5080044;27;45554;-64
2023/08/25 05:35:25;;;;;;;;;24.33;23.00;;;;;25.52;67.30;100344.44;5070254;27;45450;-67
2023/08/25 05:37:50;;;;;;;;;30.67;29.00;;;;;25.53;67.12;100352.41;5067998;27;45602;-66
2023/08/25 05:40:16;;;;;;;;;29.33;27.67;;;;;25.57;67.36;100366.44;5075206;27;45993;-64
2023/08/25 05:42:42;;;;;;;;;27.33;25.00;;;;;25.52;67.69;100379.31;5079295;27;45892;-65
2023/08/25 05:45:08;;;;;;;;;27.67;25.67;;;;;25.53;66.94;100381.91;5079809;27;45428;-64
2023/08/25 05:47:33;;;;;;;;;26.67;26.00;;;;;25.55;67.54;100371.91;5079912;27;45475;-63
2023/08/25 05:49:59;;;;;;;;;33.67;29.00;;;;;25.56;67.02;100370.94;5078360;27;45482;-63
2023/08/25 05:52:24;;;;;;;;;33.00;30.67;;;;;25.60;66.86;100375.16;5079169;27;45979;-66
2023/08/25 05:54:50;;;;;;;;;32.67;31.00;;;;;25.60;66.83;100368.91;5078034;27;45395;-64
2023/08/25 05:57:15;;;;;;;;;31.67;29.00;;;;;25.70;66.79;100391.50;5079340;27;45476;-63
2023/08/25 05:59:41;;;;;;;;;38.67;30.67;;;;;25.75;66.50;100388.50;5079023;27;46127;-63
2023/08/25 06:02:07;;;;;;;;;30.67;27.00;;;;;25.79;66.69;100385.53;5079166;27;45422;-64
2023/08/25 06:04:32;;;;;;;;;39.33;31.33;;;;;25.83;66.55;100382.63;5079502;27;45406;-63
2023/08/25 06:06:58;;;;;;;;;34.67;31.67;;;;;25.81;66.64;100362.09;5078991;27;45414;-65
2023/08/25 06:09:23;;;;;;;;;44.33;36.00;;;;;25.80;66.41;100355.03;5077658;27;45352;-63
2023/08/25 06:11:49;;;;;;;;;43.00;33.33;;;;;25.80;66.75;100347.00;5078837;27;45452;-65
2023/08/25 06:14:15;;;;;;;;;42.33;34.67;;;;;25.86;66.43;100359.16;5079183;27;45321;-64
2023/08/25 06:16:41;;;;;;;;;36.00;31.67;;;;;25.86;66.12;100361.81;5094442;27;45644;-64
2023/08/25 06:19:07;;;;;;;;;33.00;30.00;;;;;25.86;66.61;100360.94;5078815;27;46486;-64
2023/08/25 06:21:33;;;;;;;;;34.00;31.00;;;;;25.80;66.17;100347.00;5079033;27;45386;-70
2023/08/25 06:23:59;;;;;;;;;35.67;31.67;;;;;25.88;65.93;100354.53;5080241;27;45332;-64
2023/08/25 06:26:25;;;;;;;;;37.67;32.67;;;;;25.86;65.94;100356.47;5080345;27;45464;-64
2023/08/25 06:28:52;;;;;;;;;30.67;28.33;;;;;25.76;65.58;100348.16;5079522;27;45404;-67
2023/08/25 06:31:22;;;;;;;;;36.33;31.67;;;;;25.78;65.62;100359.63;5078660;27;45196;-63
2023/08/25 06:33:50;;;;;;;;;32.67;30.00;;;;;25.84;65.46;100378.97;5077400;27;45465;-65
2023/08/25 06:36:16;;;;;;;;;32.67;30.33;;;;;25.78;65.24;100373.06;5079069;27;45222;-64
2023/08/25 06:38:41;;;;;;;;;36.67;33.33;;;;;25.89;65.09;100392.94;5078066;27;46067;-66
2023/08/25 06:41:08;;;;;;;;;34.00;31.00;;;;;25.86;65.16;100385.97;5079742;27;45365;-66
2023/08/25 06:43:33;;;;;;;;;34.67;30.33;;;;;25.89;65.03;100390.28;5078025;27;45497;-65
2023/08/25 06:45:59;;;;;;;;;30.67;28.67;;;;;25.89;65.04;100392.94;5078719;27;45403;-64
2023/08/25 06:48:25;;;;;;;;;32.33;28.00;;;;;25.86;65.02;100383.28;5078713;27;46239;-64
2023/08/25 06:50:50;;;;;;;;;36.33;29.67;;;;;25.86;64.70;100390.44;5078117;27;45510;-67
2023/08/25 06:53:16;;;;;;;;;33.00;29.00;;;;;25.78;64.88;100375.72;5078054;27;45348;-66
2023/08/25 06:55:42;;;;;;;;;28.67;27.00;;;;;25.80;65.08;100378.31;5078550;27;45280;-68
2023/08/25 06:58:08;;;;;;;;;30.00;29.67;;;;;25.78;65.05;100373.06;5077068;27;46599;-69
2023/08/25 07:00:34;;;;;;;;;39.33;32.00;;;;;25.75;64.93;100369.72;5078943;27;45476;-65
2023/08/25 07:03:07;;;;;;;;;37.00;32.00;;;;;25.65;64.72;100363.25;5078732;27;45376;-65
2023/08/25 07:05:37;;;;;;;;;29.33;27.67;;;;;25.72;65.21;100383.31;5077907;27;45513;-65
2023/08/25 07:08:05;;;;;;;;;28.67;26.33;;;;;25.71;64.66;100374.44;5077734;27;46150;-65
2023/08/25 07:10:30;;;;;;;;;29.00;25.00;;;;;25.46;65.12;100344.84;5077955;27;45397;-67
2023/08/25 07:12:56;;;;;;;;;26.33;22.33;;;;;25.74;64.74;100382.25;5077321;27;45495;-67
2023/08/25 07:15:31;;;;;;;;;21.33;20.67;;;;;25.65;64.58;100361.44;5077037;27;45487;-67
2023/08/25 07:17:57;;;;;;;;;25.33;23.33;;;;;25.61;64.81;100365.28;5074478;27;46948;-65
2023/08/25 07:20:23;;;;;;;;;27.33;25.00;;;;;25.70;64.73;100386.13;5076961;28;45521;-64
2023/08/25 07:22:50;;;;;;;;;22.00;20.33;;;;;25.62;64.92;100382.22;5076930;27;45727;-66
2023/08/25 07:25:15;;;;;;;;;26.67;24.67;;;;;25.51;65.16;100389.16;5077564;27;45673;-66
2023/08/25 07:27:41;;;;;;;;;23.67;23.67;;;;;25.47;65.36;100398.38;5077925;27;45476;-72
2023/08/25 07:30:07;;;;;;;;;26.67;22.00;;;;;25.49;65.35;100393.78;5078703;27;45353;-66
2023/08/25 07:32:32;;;;;;;;;24.67;23.67;;;;;25.47;65.17;100370.72;5077378;27;45613;-69
2023/08/25 07:34:58;;;;;;;;;21.00;21.00;;;;;25.47;65.05;100371.56;5072586;27;45915;-64
2023/08/25 07:37:25;;;;;;;;;25.67;20.00;;;;;25.56;64.74;100391.56;5075495;27;45565;-65
2023/08/25 07:39:51;;;;;;;;;19.67;18.00;;;;;25.63;64.77;100390.19;5076819;27;45662;-66
2023/08/25 07:42:17;;;;;;;;;21.00;17.00;;;;;25.61;64.38;100392.09;5077560;27;45396;-64
2023/08/25 07:44:43;;;;;;;;;18.67;18.33;;;;;25.71;63.95;100398.56;5076268;27;45509;-66
2023/08/25 07:47:08;;;;;;;;;18.00;17.33;;;;;25.76;64.35;100404.47;5075682;27;46701;-65
2023/08/25 07:49:34;;;;;;;;;20.67;17.67;;;;;25.76;63.65;100388.38;5091895;27;45478;-64
2023/08/25 07:51:59;;;;;;;;;18.67;17.67;;;;;25.72;63.90;100383.31;5063991;27;45486;-67
2023/08/25 07:54:27;;;;;;;;;19.67;17.67;;;;;25.90;63.30;100418.84;5071850;27;45391;-65
2023/08/25 07:56:52;;;;;;;;;21.67;15.00;;;;;25.87;63.18;100419.91;5067813;27;45482;-65
2023/08/25 07:59:18;;;;;;;;;16.00;14.00;;;;;25.87;63.17;100424.41;5110458;27;45675;-65
2023/08/25 08:01:43;;;;;;;;;16.00;15.00;;;;;25.88;62.84;100426.13;5077118;27;45343;-66
2023/08/25 08:04:09;;;;;;;;;20.00;16.33;;;;;25.84;62.80;100430.81;5076156;27;45667;-66
2023/08/25 08:06:35;;;;;;;;;18.00;18.00;;;;;25.78;62.85;100423.16;5076978;27;45496;-64
2023/08/25 08:09:01;;;;;;;;;17.33;13.33;;;;;25.78;62.78;100423.16;5078180;27;45434;-64
2023/08/25 08:11:26;;;;;;;;;19.00;16.67;;;;;25.70;62.32;100409.38;5078521;27;45602;-65
2023/08/25 08:13:51;;;;;;;;;12.75;12.75;;;;;25.89;62.66;100434.09;5078544;27;45367;-65
2023/08/25 08:16:30;;;;;;;;;14.00;14.00;;;;;25.81;62.13;100428.31;5077074;27;45688;-65
2023/08/25 08:18:56;;;;;;;;;14.25;12.50;;;;;25.81;62.40;100426.50;5074631;27;45689;-70
2023/08/25 08:21:24;;;;;;;;;11.00;10.00;;;;;25.84;62.71;100454.06;5075868;27;45385;-71
2023/08/25 08:23:50;;;;;;;;;15.25;12.50;;;;;25.83;62.73;100455.06;5065246;27;45479;-67
2023/08/25 08:26:15;;;;;;;;;9.67;8.00;;;;;25.78;62.69;100458.88;5073641;27;45854;-65
2023/08/25 08:28:41;;;;;;;;;12.25;12.00;;;;;25.75;62.61;100464.47;5060581;28;45585;-66
2023/08/25 08:31:18;;;;;;;;;13.25;11.50;;;;;25.60;62.79;100444.00;5056687;28;45657;-63
2023/08/25 08:33:44;;;;;;;;;11.25;9.00;;;;;25.71;62.90;100467.44;5067301;27;45548;-62
2023/08/25 08:36:10;;;;;;;;;12.50;10.50;;;;;25.69;63.11;100474.72;5061945;27;46355;-67
2023/08/25 08:38:36;;;;;;;;;17.50;11.75;;;;;25.52;62.96;100460.59;5070097;27;45767;-64
2023/08/25 08:41:03;;;;;;;;;13.00;11.00;;;;;25.56;63.31;100482.72;5074167;28;45926;-64
2023/08/25 08:43:35;;;;;;;;;16.25;12.50;;;;;25.56;63.04;100485.41;5076697;27;45287;-64
2023/08/25 08:46:08;;;;;;;;;9.50;8.00;;;;;25.51;62.98;100474.97;5076767;27;46188;-64
2023/08/25 08:48:35;;;;;;;;;8.75;7.25;;;;;25.55;63.41;100489.03;5063530;27;45625;-64
2023/08/25 08:51:02;;;;;;;;;7.25;6.25;;;;;25.48;63.55;100493.91;5075801;27;45499;-65
2023/08/25 08:53:27;;;;;;;;;6.00;6.00;;;;;25.48;63.55;100493.06;5073941;28;45508;-63
2023/08/25 08:55:54;;;;;;;;;7.25;6.50;;;;;25.45;63.20;100487.91;5074268;27;46195;-65
2023/08/25 08:58:21;;;;;;;;;8.00;5.00;;;;;25.47;63.56;100504.75;5073733;28;45506;-63
2023/08/25 09:00:47;;;;;;;;;6.00;4.50;;;;;25.45;63.60;100502.16;5073217;27;45488;-65
2023/08/25 09:03:19;;;;;;;;;3.00;3.00;;;;;25.45;63.03;100506.69;5075574;27;45495;-63
2023/08/25 09:05:47;;;;;;;;;4.25;4.00;;;;;25.42;63.24;100504.19;5071553;27;45627;-65
2023/08/25 09:08:15;;;;;;;;;4.75;4.00;;;;;25.39;63.37;100508.78;5072455;28;45508;-64
2023/08/25 09:10:40;;;;;;;;;4.00;3.25;;;;;25.33;63.61;100513.69;5072663;28;45571;-65
2023/08/25 09:13:07;;;;;;;;;4.25;3.00;;;;;25.33;63.65;100521.72;5076742;27;46265;-65
2023/08/25 09:15:33;;;;;;;;;4.25;4.25;;;;;25.33;62.70;100527.94;5075552;27;46082;-64
2023/08/25 09:18:02;;;;;;;;;2.80;2.80;;;;;25.28;63.51;100534.56;5076098;28;45349;-64
2023/08/25 09:20:30;;;;;;;;;2.00;2.00;;;;;25.26;62.98;100540.00;5076962;27;45503;-65
2023/08/25 09:23:02;;;;;;;;;4.00;3.00;;;;;25.14;63.29;100528.19;5076618;27;45520;-64
2023/08/25 09:25:32;;;;;;;;;3.00;3.00;;;;;25.08;62.64;100517.88;5060606;28;47700;-65
2023/08/25 09:28:03;;;;;;;;;3.50;2.00;;;;;25.18;62.17;100542.31;5076911;27;45267;-65
2023/08/25 09:30:34;;;;;;;;;4.00;2.50;;;;;25.20;61.27;100545.75;5077149;27;45464;-67
2023/08/25 09:33:16;;;;;;;;;3.50;2.00;;;;;25.21;61.89;100550.16;5077347;27;45353;-67
2023/08/25 09:35:42;;;;;;;;;3.00;2.00;;;;;25.17;61.48;100543.22;5074994;27;45503;-67
2023/08/25 09:38:19;;;;;;;;;3.50;2.00;;;;;25.23;61.20;100550.94;5089531;27;45783;-65
2023/08/25 09:40:48;;;;;;;;;3.00;1.75;;;;;25.28;60.81;100556.00;5076442;28;45361;-64
2023/08/25 09:43:13;;;;;;;;;3.00;2.00;;;;;25.30;60.63;100564.81;5079468;27;45360;-65
2023/08/25 09:45:40;;;;;;;;;2.75;1.25;;;;;25.28;60.04;100562.22;5078382;27;45471;-65
2023/08/25 09:48:16;;;;;;;;;2.00;2.00;;;;;25.24;59.80;100559.81;5080110;27;45421;-67
2023/08/25 09:50:44;;;;;;;;;3.25;2.00;;;;;25.22;60.29;100556.38;5078539;27;45541;-65
2023/08/25 09:53:12;;;;;;;;;2.00;2.00;;;;;25.14;59.95;100548.78;5079571;27;45238;-64
2023/08/25 09:55:39;;;;;;;;;5.00;2.50;;;;;25.04;60.33;100531.56;5078183;27;46351;-64
2023/08/25 09:58:09;;;;;;;;;1.25;1.25;;;;;25.20;59.76;100567.22;5063609;27;45386;-65
2023/08/25 10:00:40;;;;;;;;;6.00;3.25;;;;;24.66;59.95;100481.19;5079112;27;45484;-63
2023/08/25 10:03:10;;;;;;;;;3.00;3.00;;;;;25.13;60.48;100573.88;5080523;27;45511;-63
2023/08/25 10:05:37;;;;;;;;;2.25;2.00;;;;;25.01;59.97;100550.47;5079803;27;45543;-66
2023/08/25 10:08:05;;;;;;;;;3.50;2.50;;;;;25.04;59.37;100553.84;5080511;27;45411;-65
2023/08/25 10:10:33;;;;;;;;;3.75;3.00;;;;;24.99;59.97;100539.88;5079060;27;45377;-68
2023/08/25 10:13:03;;;;;;;;;3.50;3.50;;;;;24.98;59.41;100536.31;5078895;27;45432;-64
2023/08/25 10:15:31;;;;;;;;;2.75;2.75;;;;;25.17;59.21;100560.19;5079206;27;45832;-65
2023/08/25 10:18:03;;;;;;;;;1.50;1.50;;;;;25.17;58.68;100538.75;5080142;27;45767;-66
2023/08/25 10:20:33;;;;;;;;;4.25;3.00;;;;;25.25;58.51;100532.94;5079062;27;45413;-65
2023/08/25 10:23:00;;;;;;;;;3.50;2.00;;;;;25.26;57.98;100537.31;5095037;27;45384;-67
2023/08/25 10:25:29;;;;;;;;;4.50;3.00;;;;;25.38;57.95;100558.00;5079210;27;46137;-66
2023/08/25 10:27:59;;;;;;;;;5.50;3.00;;;;;25.37;57.64;100555.44;5078970;27;45494;-66
2023/08/25 10:30:26;;;;;;;;;3.25;3.25;;;;;25.37;58.00;100558.97;5073596;27;45432;-69
2023/08/25 10:33:11;;;;;;;;;4.00;3.00;;;;;25.33;57.22;100565.47;5078535;27;45488;-66
2023/08/25 10:35:42;;;;;;;;;5.00;4.25;;;;;25.30;57.48;100565.66;5064999;27;46767;-66
2023/08/25 10:38:19;;;;;;;;;2.25;2.25;;;;;25.28;57.09;100564.91;5078210;27;45492;-68
2023/08/25 10:40:55;;;;;;;;;4.00;2.75;;;;;25.28;57.76;100578.31;5077814;27;45688;-66
2023/08/25 10:43:25;;;;;;;;;7.25;4.00;;;;;25.31;57.60;100570.06;5095066;27;45360;-65
2023/08/25 10:45:51;;;;;;;;;2.75;2.25;;;;;25.21;57.35;100550.16;5077949;27;46635;-65
2023/08/25 10:48:19;;;;;;;;;5.00;3.25;;;;;25.30;57.11;100573.72;5079604;28;45330;-66
2023/08/25 10:50:45;;;;;;;;;4.50;4.00;;;;;25.23;57.31;100564.31;5077477;27;45307;-66
2023/08/25 10:53:52;;;;;;;;;7.50;4.75;;;;;25.25;57.22;100575.81;5078810;27;45495;-68
2023/08/25 10:56:17;;;;;;;;;2.00;2.00;;;;;25.23;56.97;100569.69;5078134;27;48151;-65
2023/08/25 10:59:06;;;;;;;;;4.50;4.25;;;;;25.22;57.26;100575.97;5076924;27;45602;-66
2023/08/25 11:01:37;;;;;;;;;5.50;5.00;;;;;25.22;57.73;100577.81;5069142;27;45656;-65
2023/08/25 11:04:04;;;;;;;;;5.50;5.50;;;;;25.21;57.58;100581.47;5078134;27;45586;-66
2023/08/25 11:06:57;;;;;;;;;9.00;6.00;;;;;25.19;57.69;100592.25;5078628;27;45361;-65
2023/08/25 11:09:26;;;;;;;;;3.50;3.50;;;;;25.17;57.40;100587.00;5075396;27;45699;-64
2023/08/25 11:11:57;;;;;;;;;6.00;4.25;;;;;25.22;57.91;100589.38;5094189;27;45278;-67
2023/08/25 11:14:34;;;;;;;;;5.00;5.00;;;;;25.24;57.59;100586.63;5078752;27;45744;-68
2023/08/25 11:17:10;;;;;;;;;4.50;3.75;;;;;25.15;57.10;100569.25;5093933;27;47127;-67